Austintown, Ohio
Current Conditions -  °F | °C
As of 6:51 AM on Wednesday 28 Jan 2015 (Local Time) from KYNG Reporting Station
Clear Clear  
Wind Chill:   Ceiling: Unl
Heat Index:   Visibility: 10mi
Dew Point: -1°   Wind: 3mph
Humidity: 88%   Direction: 230°SW
Pressure: 30.24"   Gusts: NA
Location:  41.1°N, 80.76°W
Report Text: KYNG 281151Z 23003KT 10SM CLR M17/M18 A3024 RMK AO2 SLP265 4/008 T11671183 11133 21178 53017
Loading
Personal Weather Stations






























Interactive Weather Map New forecast layout! Learn more

10-Day Weather Forecast

Advertisements
Track Severe Weather on mobile